Terminal Aerodrome Forecast
Issued by NWS

Current Version | Previous Version | Text Only | Print | Product List | Glossary On
Versions: 1 2 3 4 5 6 7 8 9 10 11 12 13 14 15 16
647
FTUS41 KBGM 231724
TAFRME
TAF
KRME 231724Z 2318/2418 26008KT P6SM BKN035
     FM240000 23005KT P6SM BKN040
      TEMPO 2409/2412 OVC025
     FM241400 20008KT P6SM FEW045=

USA.gov is the U.S. government's official web portal to all federal, state and local government web resources and services.